OIFS  Shahrekord Airport

Add Bookmark

Shahrekord, Iran

Status IATA
Operational CQD
Latitude Longitude
32° 17' 49" N 50° 50' 31" E
32.297199 50.842201
Local (DST + 5) UTC (GMT + 4)
Jul 30, 2014 07:26 Jul 30, 2014 02:56
Sunrise-Sunset Local UTC
Begin Civil Twilight 05:51 01:21
Sunrise 06:18 01:48
Sunset 08:07 15:37
End Civil Twilight 08:34 16:04

Current Weather

METAR Observed VFR
OIFS 300200Z 30006KT CAVOK 13/04 Q1014 Wed, Jul 30, 2014 @ 02:00 UTC
(56 Minutes ago)
Visual Flight Rules

Decoded METAR

Wind Visibility Clouds Conditions
300° at 6 knots (11 kph) 10 km or more
  • Clear skies
  • No significant weather
Temperatures Readings Precipitation
Current Temp 13°C (55°F)
Dewpoint 4°C (39°F)
Humidity 55%
Altimeter 29.94"Hg
Sea Level Pressure 1014mb
Field Elevation 6817.59'
None Recorded

Additional weather within a 185.2km radius of OIFS

Map ICAO Location
OIFM 108km E (062°)
OIAI 151.5km W (258°)

24 Hour Weather History

Loading
-

24 Hour Weather Graphs

Loading
-

CheckWX.com is intended as a tool to help pilots better visualize weather data. It is not intended as a substitute for an official weather briefing obtained from a Flight Service Station. CheckWX.com does not meet the FAA requirements for an official pre-flight weather briefing. Therefore, it's important that pilots still call and obtain an official FSS pre-flight weather briefing.